Trinidad, Cuba
Current Conditions -  °F | °C
As of 4:51 AM on Sunday 26 Oct 2014 (Local Time) from MUSC Reporting Station
Clear Clear  
Wind Chill: 63°   Ceiling: Unl
Heat Index: 63°   Visibility: 6mi
Dew Point: 63°   Wind: 1mph
Humidity: 100%   Direction: NA
Pressure: 29.85"   Gusts: NA
Location:  21.8°N, 79.98°W
Report Text: MUSC 260851Z VRB01KT 9000 NSC 17/17 Q1011
Loading
Personal Weather Stations






























Interactive Weather Map
Tropical Storm Tracking
New forecast layout! Learn more

10-Day Weather Forecast

Advertisements
Track Severe Weather on mobile